sensor_id;sensor_type;location;lat;lon;timestamp;pressure;altitude;pressure_sealevel;temperature;humidity
17072;BME280;7731;50.720;6.912;2022-12-20T00:00:42;100186.78;;;9.78;100.00
17072;BME280;7731;50.720;6.912;2022-12-20T00:03:12;100180.41;;;9.87;100.00
17072;BME280;7731;50.720;6.912;2022-12-20T00:05:43;100161.34;;;9.73;100.00
17072;BME280;7731;50.720;6.912;2022-12-20T00:08:14;100158.78;;;9.73;100.00
17072;BME280;7731;50.720;6.912;2022-12-20T00:10:45;100150.03;;;9.77;100.00
17072;BME280;7731;50.720;6.912;2022-12-20T00:13:18;100144.22;;;9.74;100.00
17072;BME280;7731;50.720;6.912;2022-12-20T00:15:48;100132.09;;;9.77;100.00
17072;BME280;7731;50.720;6.912;2022-12-20T00:18:18;100126.06;;;9.78;100.00
17072;BME280;7731;50.720;6.912;2022-12-20T00:20:57;100124.38;;;9.77;100.00
17072;BME280;7731;50.720;6.912;2022-12-20T00:23:28;100094.69;;;9.72;100.00
17072;BME280;7731;50.720;6.912;2022-12-20T00:26:04;100092.28;;;9.69;100.00
17072;BME280;7731;50.720;6.912;2022-12-20T00:28:39;100099.28;;;9.65;100.00
17072;BME280;7731;50.720;6.912;2022-12-20T00:31:11;100083.25;;;9.79;100.00
17072;BME280;7731;50.720;6.912;2022-12-20T00:33:46;100099.69;;;9.94;100.00
17072;BME280;7731;50.720;6.912;2022-12-20T00:36:20;100094.41;;;9.97;100.00
17072;BME280;7731;50.720;6.912;2022-12-20T00:38:54;100089.69;;;9.88;100.00
17072;BME280;7731;50.720;6.912;2022-12-20T00:41:27;100099.81;;;9.91;100.00
17072;BME280;7731;50.720;6.912;2022-12-20T00:44:01;100086.34;;;9.86;100.00
17072;BME280;7731;50.720;6.912;2022-12-20T00:46:32;100088.59;;;9.74;100.00
17072;BME280;7731;50.720;6.912;2022-12-20T00:49:03;100081.38;;;9.82;100.00
17072;BME280;7731;50.720;6.912;2022-12-20T00:51:33;100098.28;;;9.87;100.00
17072;BME280;7731;50.720;6.912;2022-12-20T00:54:06;100091.34;;;9.89;100.00
17072;BME280;7731;50.720;6.912;2022-12-20T00:56:36;100091.78;;;9.79;100.00
17072;BME280;7731;50.720;6.912;2022-12-20T00:59:09;100097.47;;;9.67;100.00
17072;BME280;7731;50.720;6.912;2022-12-20T01:01:39;100103.72;;;9.80;100.00
17072;BME280;7731;50.720;6.912;2022-12-20T01:04:09;100099.03;;;9.89;100.00
17072;BME280;7731;50.720;6.912;2022-12-20T01:06:40;100096.97;;;9.78;100.00
17072;BME280;7731;50.720;6.912;2022-12-20T01:09:11;100093.91;;;9.89;100.00
17072;BME280;7731;50.720;6.912;2022-12-20T01:11:41;100114.72;;;9.82;100.00
17072;BME280;7731;50.720;6.912;2022-12-20T01:14:16;100110.38;;;9.85;100.00
17072;BME280;7731;50.720;6.912;2022-12-20T01:16:47;100103.28;;;9.90;100.00
17072;BME280;7731;50.720;6.912;2022-12-20T01:19:18;100100.78;;;9.88;100.00
17072;BME280;7731;50.720;6.912;2022-12-20T01:21:48;100093.75;;;9.74;100.00
17072;BME280;7731;50.720;6.912;2022-12-20T01:24:19;100097.19;;;9.73;100.00
17072;BME280;7731;50.720;6.912;2022-12-20T01:26:49;100098.47;;;9.64;100.00
17072;BME280;7731;50.720;6.912;2022-12-20T01:29:22;100104.63;;;9.60;100.00
17072;BME280;7731;50.720;6.912;2022-12-20T01:31:52;100098.03;;;9.74;100.00
17072;BME280;7731;50.720;6.912;2022-12-20T01:34:22;100108.38;;;9.72;100.00
17072;BME280;7731;50.720;6.912;2022-12-20T01:36:52;100098.59;;;9.80;100.00
17072;BME280;7731;50.720;6.912;2022-12-20T01:39:23;100101.75;;;9.86;100.00
17072;BME280;7731;50.720;6.912;2022-12-20T01:41:53;100096.63;;;9.86;100.00
17072;BME280;7731;50.720;6.912;2022-12-20T01:45:06;100098.78;;;9.76;100.00
17072;BME280;7731;50.720;6.912;2022-12-20T01:47:37;100095.00;;;9.65;100.00
17072;BME280;7731;50.720;6.912;2022-12-20T01:50:08;100092.63;;;9.80;100.00
17072;BME280;7731;50.720;6.912;2022-12-20T01:52:42;100092.22;;;9.70;100.00
17072;BME280;7731;50.720;6.912;2022-12-20T01:55:19;100081.84;;;9.54;100.00
17072;BME280;7731;50.720;6.912;2022-12-20T01:57:58;100094.03;;;9.68;100.00
17072;BME280;7731;50.720;6.912;2022-12-20T02:00:32;100089.84;;;9.65;100.00
17072;BME280;7731;50.720;6.912;2022-12-20T02:03:07;100094.25;;;9.63;100.00
17072;BME280;7731;50.720;6.912;2022-12-20T02:05:43;100104.44;;;9.65;100.00
17072;BME280;7731;50.720;6.912;2022-12-20T02:08:18;100102.59;;;9.67;100.00
17072;BME280;7731;50.720;6.912;2022-12-20T02:11:07;100089.72;;;9.69;100.00
17072;BME280;7731;50.720;6.912;2022-12-20T02:13:57;100086.16;;;9.54;100.00
17072;BME280;7731;50.720;6.912;2022-12-20T02:16:46;100084.75;;;9.46;100.00
17072;BME280;7731;50.720;6.912;2022-12-20T02:20:03;100085.66;;;9.45;100.00
17072;BME280;7731;50.720;6.912;2022-12-20T02:23:05;100071.66;;;9.53;100.00
17072;BME280;7731;50.720;6.912;2022-12-20T02:25:52;100071.00;;;9.47;100.00
17072;BME280;7731;50.720;6.912;2022-12-20T02:28:48;100070.81;;;9.52;100.00
17072;BME280;7731;50.720;6.912;2022-12-20T02:31:37;100065.88;;;9.47;100.00
17072;BME280;7731;50.720;6.912;2022-12-20T02:34:12;100065.78;;;9.51;100.00
17072;BME280;7731;50.720;6.912;2022-12-20T02:36:44;100077.81;;;9.48;100.00
17072;BME280;7731;50.720;6.912;2022-12-20T02:39:15;100071.53;;;9.73;100.00
17072;BME280;7731;50.720;6.912;2022-12-20T02:41:52;100086.19;;;9.71;100.00
17072;BME280;7731;50.720;6.912;2022-12-20T02:44:27;100080.91;;;9.74;100.00
17072;BME280;7731;50.720;6.912;2022-12-20T02:47:22;100080.91;;;9.74;100.00
17072;BME280;7731;50.720;6.912;2022-12-20T02:49:55;100075.31;;;9.66;100.00
17072;BME280;7731;50.720;6.912;2022-12-20T02:52:27;100074.50;;;9.46;100.00
17072;BME280;7731;50.720;6.912;2022-12-20T02:55:01;100073.09;;;9.39;100.00
17072;BME280;7731;50.720;6.912;2022-12-20T02:57:42;100082.09;;;9.29;100.00
17072;BME280;7731;50.720;6.912;2022-12-20T03:00:17;100081.50;;;9.24;100.00
17072;BME280;7731;50.720;6.912;2022-12-20T03:02:51;100076.69;;;9.35;100.00
17072;BME280;7731;50.720;6.912;2022-12-20T03:05:43;100073.72;;;9.44;100.00
17072;BME280;7731;50.720;6.912;2022-12-20T03:08:14;100065.34;;;9.41;100.00
17072;BME280;7731;50.720;6.912;2022-12-20T03:10:45;100061.31;;;9.35;100.00
17072;BME280;7731;50.720;6.912;2022-12-20T03:13:15;100061.38;;;9.53;100.00
17072;BME280;7731;50.720;6.912;2022-12-20T03:15:46;100055.22;;;9.57;100.00
17072;BME280;7731;50.720;6.912;2022-12-20T03:18:19;100062.50;;;9.66;100.00
17072;BME280;7731;50.720;6.912;2022-12-20T03:20:49;100050.50;;;9.47;100.00
17072;BME280;7731;50.720;6.912;2022-12-20T03:23:19;100053.00;;;9.30;100.00
17072;BME280;7731;50.720;6.912;2022-12-20T03:25:50;100052.59;;;9.39;100.00
17072;BME280;7731;50.720;6.912;2022-12-20T03:28:20;100046.28;;;9.46;100.00
17072;BME280;7731;50.720;6.912;2022-12-20T03:30:50;100033.91;;;9.37;100.00
17072;BME280;7731;50.720;6.912;2022-12-20T03:33:23;100039.16;;;9.34;100.00
17072;BME280;7731;50.720;6.912;2022-12-20T03:35:53;100040.13;;;9.51;100.00
17072;BME280;7731;50.720;6.912;2022-12-20T03:38:23;100035.31;;;9.43;100.00
17072;BME280;7731;50.720;6.912;2022-12-20T03:40:54;100044.63;;;9.45;100.00
17072;BME280;7731;50.720;6.912;2022-12-20T03:43:24;100049.28;;;9.37;100.00
17072;BME280;7731;50.720;6.912;2022-12-20T03:45:54;100043.16;;;9.40;100.00
17072;BME280;7731;50.720;6.912;2022-12-20T03:48:27;100049.28;;;9.37;100.00
17072;BME280;7731;50.720;6.912;2022-12-20T03:50:59;100051.56;;;9.43;100.00
17072;BME280;7731;50.720;6.912;2022-12-20T03:53:29;100068.13;;;9.36;100.00
17072;BME280;7731;50.720;6.912;2022-12-20T03:56:00;100059.25;;;9.43;100.00
17072;BME280;7731;50.720;6.912;2022-12-20T03:58:30;100052.06;;;9.33;100.00
17072;BME280;7731;50.720;6.912;2022-12-20T04:01:00;100062.84;;;9.39;100.00
17072;BME280;7731;50.720;6.912;2022-12-20T04:03:32;100072.53;;;9.52;100.00
17072;BME280;7731;50.720;6.912;2022-12-20T04:06:03;100064.81;;;9.34;100.00
17072;BME280;7731;50.720;6.912;2022-12-20T04:08:35;100066.44;;;9.35;100.00
17072;BME280;7731;50.720;6.912;2022-12-20T04:11:05;100065.84;;;9.30;100.00
17072;BME280;7731;50.720;6.912;2022-12-20T04:13:49;100071.38;;;9.21;100.00
17072;BME280;7731;50.720;6.912;2022-12-20T04:16:22;100061.03;;;9.41;100.00
17072;BME280;7731;50.720;6.912;2022-12-20T04:18:56;100066.09;;;9.24;100.00
17072;BME280;7731;50.720;6.912;2022-12-20T04:21:29;100067.00;;;9.23;100.00
17072;BME280;7731;50.720;6.912;2022-12-20T04:24:06;100058.00;;;9.14;100.00
17072;BME280;7731;50.720;6.912;2022-12-20T04:26:38;100047.06;;;9.29;100.00
17072;BME280;7731;50.720;6.912;2022-12-20T04:29:08;100044.72;;;9.25;100.00
17072;BME280;7731;50.720;6.912;2022-12-20T04:31:38;100035.91;;;9.11;100.00
17072;BME280;7731;50.720;6.912;2022-12-20T04:34:11;100023.09;;;9.11;100.00
17072;BME280;7731;50.720;6.912;2022-12-20T04:36:42;100017.53;;;9.21;100.00
17072;BME280;7731;50.720;6.912;2022-12-20T04:39:13;100027.25;;;9.14;100.00
17072;BME280;7731;50.720;6.912;2022-12-20T04:41:43;100027.03;;;9.19;100.00
17072;BME280;7731;50.720;6.912;2022-12-20T04:44:13;100022.75;;;9.00;100.00
17072;BME280;7731;50.720;6.912;2022-12-20T04:46:44;100035.78;;;8.96;100.00
17072;BME280;7731;50.720;6.912;2022-12-20T04:49:18;100029.53;;;9.01;100.00
17072;BME280;7731;50.720;6.912;2022-12-20T04:51:48;100031.66;;;9.10;100.00
17072;BME280;7731;50.720;6.912;2022-12-20T04:54:21;100028.34;;;9.08;100.00
17072;BME280;7731;50.720;6.912;2022-12-20T04:56:53;100022.66;;;9.21;100.00
17072;BME280;7731;50.720;6.912;2022-12-20T04:59:23;100017.63;;;9.19;100.00
17072;BME280;7731;50.720;6.912;2022-12-20T05:01:53;100020.31;;;8.97;100.00
17072;BME280;7731;50.720;6.912;2022-12-20T05:04:26;100023.38;;;9.05;100.00
17072;BME280;7731;50.720;6.912;2022-12-20T05:07:03;100023.38;;;9.05;100.00
17072;BME280;7731;50.720;6.912;2022-12-20T05:09:43;100039.00;;;8.99;100.00
17072;BME280;7731;50.720;6.912;2022-12-20T05:12:17;100026.06;;;9.02;100.00
17072;BME280;7731;50.720;6.912;2022-12-20T05:14:49;100012.56;;;8.99;100.00
17072;BME280;7731;50.720;6.912;2022-12-20T05:17:19;100012.00;;;9.11;100.00
17072;BME280;7731;50.720;6.912;2022-12-20T05:19:54;99999.13;;;9.13;100.00
17072;BME280;7731;50.720;6.912;2022-12-20T05:22:24;100009.59;;;9.08;100.00
17072;BME280;7731;50.720;6.912;2022-12-20T05:25:09;100003.53;;;9.09;100.00
17072;BME280;7731;50.720;6.912;2022-12-20T05:27:52;100012.22;;;9.06;100.00
17072;BME280;7731;50.720;6.912;2022-12-20T05:30:22;100011.31;;;9.26;100.00
17072;BME280;7731;50.720;6.912;2022-12-20T05:32:52;99994.00;;;9.13;100.00
17072;BME280;7731;50.720;6.912;2022-12-20T05:35:25;99988.94;;;9.11;100.00
17072;BME280;7731;50.720;6.912;2022-12-20T05:37:56;99991.78;;;9.24;100.00
17072;BME280;7731;50.720;6.912;2022-12-20T05:40:26;99978.50;;;9.16;100.00
17072;BME280;7731;50.720;6.912;2022-12-20T05:42:56;99976.28;;;9.08;100.00
17072;BME280;7731;50.720;6.912;2022-12-20T05:45:27;99972.94;;;9.06;100.00
17072;BME280;7731;50.720;6.912;2022-12-20T05:47:57;99984.94;;;9.05;100.00
17072;BME280;7731;50.720;6.912;2022-12-20T05:50:30;99973.66;;;9.09;100.00
17072;BME280;7731;50.720;6.912;2022-12-20T05:53:00;99980.97;;;9.17;100.00
17072;BME280;7731;50.720;6.912;2022-12-20T05:55:38;99970.66;;;9.19;100.00
17072;BME280;7731;50.720;6.912;2022-12-20T05:58:10;99977.13;;;9.26;100.00
17072;BME280;7731;50.720;6.912;2022-12-20T06:00:43;99975.66;;;9.39;100.00
17072;BME280;7731;50.720;6.912;2022-12-20T06:03:14;99974.72;;;9.23;100.00
17072;BME280;7731;50.720;6.912;2022-12-20T06:05:48;99972.94;;;9.25;100.00
17072;BME280;7731;50.720;6.912;2022-12-20T06:08:18;99962.69;;;9.25;100.00
17072;BME280;7731;50.720;6.912;2022-12-20T06:10:50;99968.72;;;9.41;100.00
17072;BME280;7731;50.720;6.912;2022-12-20T06:13:21;99968.03;;;9.57;100.00
17072;BME280;7731;50.720;6.912;2022-12-20T06:15:54;99966.22;;;9.59;100.00
17072;BME280;7731;50.720;6.912;2022-12-20T06:18:24;99971.63;;;9.53;100.00
17072;BME280;7731;50.720;6.912;2022-12-20T06:20:57;99972.22;;;9.40;100.00
17072;BME280;7731;50.720;6.912;2022-12-20T06:23:28;99972.06;;;9.43;100.00
17072;BME280;7731;50.720;6.912;2022-12-20T06:26:01;99966.66;;;9.50;100.00
17072;BME280;7731;50.720;6.912;2022-12-20T06:28:31;99973.16;;;9.57;100.00
17072;BME280;7731;50.720;6.912;2022-12-20T06:31:03;99959.84;;;9.48;100.00
17072;BME280;7731;50.720;6.912;2022-12-20T06:33:34;99951.41;;;9.46;100.00
17072;BME280;7731;50.720;6.912;2022-12-20T06:36:08;99949.56;;;9.68;100.00
17072;BME280;7731;50.720;6.912;2022-12-20T06:38:38;99947.50;;;9.57;100.00
17072;BME280;7731;50.720;6.912;2022-12-20T06:41:08;99953.22;;;9.62;100.00
17072;BME280;7731;50.720;6.912;2022-12-20T06:43:39;99958.38;;;9.79;100.00
17072;BME280;7731;50.720;6.912;2022-12-20T06:46:09;99952.78;;;9.71;100.00
17072;BME280;7731;50.720;6.912;2022-12-20T06:48:41;99951.91;;;9.72;100.00
17072;BME280;7731;50.720;6.912;2022-12-20T06:51:14;99948.84;;;9.64;100.00
17072;BME280;7731;50.720;6.912;2022-12-20T06:53:45;99947.72;;;9.70;100.00
17072;BME280;7731;50.720;6.912;2022-12-20T06:56:20;99951.13;;;9.53;100.00
17072;BME280;7731;50.720;6.912;2022-12-20T06:58:51;99933.59;;;9.43;100.00
17072;BME280;7731;50.720;6.912;2022-12-20T07:01:22;99929.16;;;9.47;100.00
17072;BME280;7731;50.720;6.912;2022-12-20T07:03:52;99928.47;;;9.61;100.00
17072;BME280;7731;50.720;6.912;2022-12-20T07:06:25;99927.50;;;9.63;100.00
17072;BME280;7731;50.720;6.912;2022-12-20T07:08:57;99925.31;;;9.56;100.00
17072;BME280;7731;50.720;6.912;2022-12-20T07:11:28;99917.09;;;9.67;100.00
17072;BME280;7731;50.720;6.912;2022-12-20T07:13:58;99917.25;;;9.63;100.00
17072;BME280;7731;50.720;6.912;2022-12-20T07:16:30;99905.09;;;9.67;100.00
17072;BME280;7731;50.720;6.912;2022-12-20T07:19:01;99907.19;;;9.76;100.00
17072;BME280;7731;50.720;6.912;2022-12-20T07:21:35;99917.94;;;9.85;100.00
17072;BME280;7731;50.720;6.912;2022-12-20T07:24:07;99914.47;;;9.68;100.00
17072;BME280;7731;50.720;6.912;2022-12-20T07:26:37;99917.31;;;9.62;100.00
17072;BME280;7731;50.720;6.912;2022-12-20T07:29:08;99921.31;;;9.85;100.00
17072;BME280;7731;50.720;6.912;2022-12-20T07:31:42;99921.09;;;9.72;100.00
17072;BME280;7731;50.720;6.912;2022-12-20T07:34:13;99924.56;;;9.71;100.00
17072;BME280;7731;50.720;6.912;2022-12-20T07:36:46;99933.47;;;9.81;100.00
17072;BME280;7731;50.720;6.912;2022-12-20T07:39:17;99921.09;;;9.72;100.00
17072;BME280;7731;50.720;6.912;2022-12-20T07:41:48;99926.91;;;9.76;100.00
17072;BME280;7731;50.720;6.912;2022-12-20T07:44:18;99924.78;;;9.84;100.00
17072;BME280;7731;50.720;6.912;2022-12-20T07:46:48;99917.63;;;9.73;100.00
17072;BME280;7731;50.720;6.912;2022-12-20T07:49:18;99915.97;;;9.90;100.00
17072;BME280;7731;50.720;6.912;2022-12-20T07:51:56;99911.06;;;9.85;100.00
17072;BME280;7731;50.720;6.912;2022-12-20T07:54:32;99907.06;;;9.97;100.00
17072;BME280;7731;50.720;6.912;2022-12-20T07:57:11;99910.03;;;10.05;100.00
17072;BME280;7731;50.720;6.912;2022-12-20T07:59:48;99909.88;;;10.08;100.00
17072;BME280;7731;50.720;6.912;2022-12-20T08:02:24;99910.63;;;10.10;100.00
17072;BME280;7731;50.720;6.912;2022-12-20T08:04:57;99915.91;;;10.07;100.00
17072;BME280;7731;50.720;6.912;2022-12-20T08:07:30;99896.50;;;10.19;100.00
17072;BME280;7731;50.720;6.912;2022-12-20T08:10:01;99887.84;;;10.04;100.00
17072;BME280;7731;50.720;6.912;2022-12-20T08:12:32;99886.22;;;10.03;100.00
17072;BME280;7731;50.720;6.912;2022-12-20T08:15:06;99878.34;;;10.06;100.00
17072;BME280;7731;50.720;6.912;2022-12-20T08:17:36;99877.88;;;10.15;100.00
17072;BME280;7731;50.720;6.912;2022-12-20T08:20:08;99869.72;;;10.07;100.00
17072;BME280;7731;50.720;6.912;2022-12-20T08:22:41;99877.50;;;10.06;100.00
17072;BME280;7731;50.720;6.912;2022-12-20T08:25:11;99875.78;;;10.06;100.00
17072;BME280;7731;50.720;6.912;2022-12-20T08:27:42;99875.38;;;10.14;100.00
17072;BME280;7731;50.720;6.912;2022-12-20T08:30:15;99875.47;;;10.12;100.00
17072;BME280;7731;50.720;6.912;2022-12-20T08:32:45;99881.72;;;10.07;100.00
17072;BME280;7731;50.720;6.912;2022-12-20T08:35:16;99877.34;;;10.09;100.00
17072;BME280;7731;50.720;6.912;2022-12-20T08:37:51;99880.00;;;10.07;100.00
17072;BME280;7731;50.720;6.912;2022-12-20T08:40:22;99879.59;;;10.15;100.00
17072;BME280;7731;50.720;6.912;2022-12-20T08:42:52;99871.66;;;10.19;100.00
17072;BME280;7731;50.720;6.912;2022-12-20T08:45:22;99867.94;;;10.09;100.00
17072;BME280;7731;50.720;6.912;2022-12-20T08:47:55;99873.06;;;10.09;100.00
17072;BME280;7731;50.720;6.912;2022-12-20T08:50:25;99868.34;;;10.17;100.00
17072;BME280;7731;50.720;6.912;2022-12-20T08:53:00;99871.81;;;10.16;100.00
17072;BME280;7731;50.720;6.912;2022-12-20T08:55:31;99875.72;;;10.24;100.00
17072;BME280;7731;50.720;6.912;2022-12-20T08:58:02;99877.84;;;10.33;100.00
17072;BME280;7731;50.720;6.912;2022-12-20T09:00:32;99876.38;;;10.27;100.00
17072;BME280;7731;50.720;6.912;2022-12-20T09:03:02;99892.44;;;10.15;100.00
17072;BME280;7731;50.720;6.912;2022-12-20T09:05:34;99881.75;;;10.23;100.00
17072;BME280;7731;50.720;6.912;2022-12-20T09:08:07;99877.56;;;10.22;100.00
17072;BME280;7731;50.720;6.912;2022-12-20T09:10:37;99872.13;;;10.10;100.00
17072;BME280;7731;50.720;6.912;2022-12-20T09:13:08;99888.47;;;10.09;100.00
17072;BME280;7731;50.720;6.912;2022-12-20T09:15:40;99898.09;;;10.22;100.00
17072;BME280;7731;50.720;6.912;2022-12-20T09:18:11;99898.09;;;10.22;100.00
17072;BME280;7731;50.720;6.912;2022-12-20T09:20:44;99902.38;;;10.21;100.00
17072;BME280;7731;50.720;6.912;2022-12-20T09:23:17;99908.38;;;10.22;100.00
17072;BME280;7731;50.720;6.912;2022-12-20T09:25:47;99907.00;;;10.14;100.00
17072;BME280;7731;50.720;6.912;2022-12-20T09:28:23;99900.53;;;10.07;100.00
17072;BME280;7731;50.720;6.912;2022-12-20T09:30:57;99901.00;;;9.98;100.00
17072;BME280;7731;50.720;6.912;2022-12-20T09:33:29;99893.44;;;9.95;100.00
17072;BME280;7731;50.720;6.912;2022-12-20T09:36:01;99899.03;;;10.03;100.00
17072;BME280;7731;50.720;6.912;2022-12-20T09:38:34;99894.13;;;10.32;100.00
17072;BME280;7731;50.720;6.912;2022-12-20T09:41:21;99896.56;;;10.35;100.00
17072;BME280;7731;50.720;6.912;2022-12-20T09:43:53;99892.94;;;10.39;100.00
17072;BME280;7731;50.720;6.912;2022-12-20T09:46:24;99904.38;;;10.32;100.00
17072;BME280;7731;50.720;6.912;2022-12-20T09:48:58;99902.63;;;10.16;100.00
17072;BME280;7731;50.720;6.912;2022-12-20T09:55:11;99897.16;;;10.23;100.00
17072;BME280;7731;50.720;6.912;2022-12-20T09:57:59;99894.91;;;10.34;100.00
17072;BME280;7731;50.720;6.912;2022-12-20T10:00:35;99895.66;;;10.36;100.00
17072;BME280;7731;50.720;6.912;2022-12-20T10:03:22;99888.69;;;10.38;100.00
17072;BME280;7731;50.720;6.912;2022-12-20T10:06:00;99885.75;;;10.62;100.00
17072;BME280;7731;50.720;6.912;2022-12-20T10:08:47;99892.28;;;10.51;100.00
17072;BME280;7731;50.720;6.912;2022-12-20T10:11:44;99898.81;;;10.41;100.00
17072;BME280;7731;50.720;6.912;2022-12-20T10:14:51;99907.53;;;10.54;100.00
17072;BME280;7731;50.720;6.912;2022-12-20T10:17:53;99916.25;;;10.68;100.00
17072;BME280;7731;50.720;6.912;2022-12-20T10:20:42;99919.47;;;10.56;100.00
17072;BME280;7731;50.720;6.912;2022-12-20T10:23:26;99898.09;;;10.55;100.00
17072;BME280;7731;50.720;6.912;2022-12-20T10:26:00;99892.56;;;10.63;100.00
17072;BME280;7731;50.720;6.912;2022-12-20T10:28:34;99870.81;;;10.68;100.00
17072;BME280;7731;50.720;6.912;2022-12-20T10:31:12;99874.22;;;10.85;100.00
17072;BME280;7731;50.720;6.912;2022-12-20T10:33:44;99875.63;;;10.75;100.00
17072;BME280;7731;50.720;6.912;2022-12-20T10:36:22;99864.69;;;10.71;100.00
17072;BME280;7731;50.720;6.912;2022-12-20T10:38:55;99856.25;;;10.69;100.00
17072;BME280;7731;50.720;6.912;2022-12-20T10:41:33;99854.81;;;10.79;100.00
17072;BME280;7731;50.720;6.912;2022-12-20T10:44:24;99846.47;;;10.76;100.00
17072;BME280;7731;50.720;6.912;2022-12-20T10:46:59;99843.81;;;10.77;100.00
17072;BME280;7731;50.720;6.912;2022-12-20T10:49:32;99844.78;;;10.75;100.00
17072;BME280;7731;50.720;6.912;2022-12-20T10:52:12;99837.00;;;10.76;100.00
17072;BME280;7731;50.720;6.912;2022-12-20T10:54:45;99833.53;;;10.77;100.00
17072;BME280;7731;50.720;6.912;2022-12-20T10:57:20;99839.06;;;10.85;100.00
17072;BME280;7731;50.720;6.912;2022-12-20T10:59:57;99842.97;;;10.93;100.00
17072;BME280;7731;50.720;6.912;2022-12-20T11:02:31;99849.75;;;10.78;100.00
17072;BME280;7731;50.720;6.912;2022-12-20T11:05:23;99842.56;;;10.84;100.00
17072;BME280;7731;50.720;6.912;2022-12-20T11:07:57;99839.41;;;10.95;99.90
17072;BME280;7731;50.720;6.912;2022-12-20T11:10:47;99831.34;;;10.85;100.00
17072;BME280;7731;50.720;6.912;2022-12-20T11:13:24;99830.50;;;11.01;99.63
17072;BME280;7731;50.720;6.912;2022-12-20T11:15:58;99820.38;;;10.98;99.59
17072;BME280;7731;50.720;6.912;2022-12-20T11:18:42;99805.91;;;10.97;99.09
17072;BME280;7731;50.720;6.912;2022-12-20T11:21:25;99800.16;;;10.92;99.95
17072;BME280;7731;50.720;6.912;2022-12-20T11:24:07;99802.97;;;11.03;98.75
17072;BME280;7731;50.720;6.912;2022-12-20T11:27:06;99765.16;;;11.05;98.74
17072;BME280;7731;50.720;6.912;2022-12-20T11:30:06;99765.69;;;11.10;98.38
17072;BME280;7731;50.720;6.912;2022-12-20T11:33:09;99766.47;;;11.12;98.14
17072;BME280;7731;50.720;6.912;2022-12-20T11:35:56;99761.69;;;11.06;98.05
17072;BME280;7731;50.720;6.912;2022-12-20T11:38:41;99768.28;;;11.10;97.70
17072;BME280;7731;50.720;6.912;2022-12-20T11:41:24;99771.97;;;11.20;96.86
17072;BME280;7731;50.720;6.912;2022-12-20T11:44:15;99777.13;;;11.20;96.73
17072;BME280;7731;50.720;6.912;2022-12-20T11:47:31;99768.22;;;11.26;96.20
17072;BME280;7731;50.720;6.912;2022-12-20T11:53:22;99764.09;;;11.23;96.71
17072;BME280;7731;50.720;6.912;2022-12-20T11:56:01;99758.94;;;11.23;96.28
17072;BME280;7731;50.720;6.912;2022-12-20T11:58:50;99756.91;;;11.29;95.80
17072;BME280;7731;50.720;6.912;2022-12-20T12:01:27;99746.63;;;11.29;95.33
17072;BME280;7731;50.720;6.912;2022-12-20T12:04:10;99751.59;;;11.32;95.36
17072;BME280;7731;50.720;6.912;2022-12-20T12:06:53;99749.41;;;11.40;94.78
17072;BME280;7731;50.720;6.912;2022-12-20T12:09:34;99739.50;;;11.34;95.08
17072;BME280;7731;50.720;6.912;2022-12-20T12:12:24;99733.03;;;11.26;95.32
17072;BME280;7731;50.720;6.912;2022-12-20T12:15:03;99742.16;;;11.32;95.98
17072;BME280;7731;50.720;6.912;2022-12-20T12:17:49;99742.78;;;11.36;94.72
17072;BME280;7731;50.720;6.912;2022-12-20T12:20:32;99742.78;;;11.36;94.57
17072;BME280;7731;50.720;6.912;2022-12-20T12:23:17;99743.50;;;11.38;94.85
17072;BME280;7731;50.720;6.912;2022-12-20T12:25:51;99737.81;;;11.33;95.08
17072;BME280;7731;50.720;6.912;2022-12-20T12:28:26;99735.06;;;11.36;94.43
17072;BME280;7731;50.720;6.912;2022-12-20T12:31:05;99735.44;;;11.44;94.11
17072;BME280;7731;50.720;6.912;2022-12-20T12:33:43;99726.53;;;11.35;94.81
17072;BME280;7731;50.720;6.912;2022-12-20T12:36:49;99727.91;;;11.41;94.20
17072;BME280;7731;50.720;6.912;2022-12-20T12:39:59;99726.25;;;11.54;93.46
17072;BME280;7731;50.720;6.912;2022-12-20T12:46:02;99715.78;;;11.29;94.40
17072;BME280;7731;50.720;6.912;2022-12-20T12:48:46;99712.75;;;11.36;94.21
17072;BME280;7731;50.720;6.912;2022-12-20T12:51:27;99703.75;;;11.43;93.88
17072;BME280;7731;50.720;6.912;2022-12-20T12:54:18;99715.22;;;11.38;94.03
17072;BME280;7731;50.720;6.912;2022-12-20T12:57:00;99716.34;;;11.34;93.39
17072;BME280;7731;50.720;6.912;2022-12-20T12:59:50;99726.28;;;11.40;93.87
17072;BME280;7731;50.720;6.912;2022-12-20T13:02:49;99725.72;;;11.49;92.36
17072;BME280;7731;50.720;6.912;2022-12-20T13:05:39;99725.69;;;11.35;93.27
17072;BME280;7731;50.720;6.912;2022-12-20T13:08:16;99718.56;;;11.40;92.93
17072;BME280;7731;50.720;6.912;2022-12-20T13:10:59;99729.03;;;11.37;93.11
17072;BME280;7731;50.720;6.912;2022-12-20T13:13:32;99729.75;;;11.24;94.04
17072;BME280;7731;50.720;6.912;2022-12-20T13:16:26;99724.25;;;11.31;93.97
17072;BME280;7731;50.720;6.912;2022-12-20T13:19:33;99730.94;;;11.19;93.69
17072;BME280;7731;50.720;6.912;2022-12-20T13:22:19;99732.31;;;11.24;93.97
17072;BME280;7731;50.720;6.912;2022-12-20T13:24:55;99727.84;;;10.98;96.08
17072;BME280;7731;50.720;6.912;2022-12-20T13:27:34;99723.66;;;10.97;96.43
17072;BME280;7731;50.720;6.912;2022-12-20T13:30:27;99729.41;;;10.86;97.18
17072;BME280;7731;50.720;6.912;2022-12-20T13:33:21;99721.81;;;10.99;96.50
17072;BME280;7731;50.720;6.912;2022-12-20T13:36:27;99718.06;;;11.04;95.82
17072;BME280;7731;50.720;6.912;2022-12-20T13:38:57;99714.38;;;11.08;95.32
17072;BME280;7731;50.720;6.912;2022-12-20T13:41:44;99710.34;;;11.04;96.08
17072;BME280;7731;50.720;6.912;2022-12-20T13:44:40;99708.78;;;11.02;95.88
17072;BME280;7731;50.720;6.912;2022-12-20T13:47:39;99705.56;;;10.98;96.61
17072;BME280;7731;50.720;6.912;2022-12-20T13:50:30;99698.75;;;10.83;97.23
17072;BME280;7731;50.720;6.912;2022-12-20T13:53:03;99704.72;;;10.98;96.42
17072;BME280;7731;50.720;6.912;2022-12-20T13:55:38;99709.47;;;10.89;96.90
17072;BME280;7731;50.720;6.912;2022-12-20T13:58:15;99712.59;;;10.80;96.90
17072;BME280;7731;50.720;6.912;2022-12-20T14:00:47;99713.66;;;10.76;98.02
17072;BME280;7731;50.720;6.912;2022-12-20T14:03:28;99717.50;;;10.69;98.35